NCAR-RAP Real-Time Weather Data

Output produced by METARs form (19 June 2019  11:37 UTC)
found at http://weather.rap.ucar.edu/surface/
 
KLSE 191053Z 00000KT 10SM CLR 14/12 A2984 RMK AO2 SLP099 T01440122 $
KLSE 190953Z AUTO 00000KT 10SM CLR 14/12 A2984 RMK AO2 SLP098 T01390117 $
KLSE 190853Z AUTO 00000KT 10SM CLR 15/12 A2984 RMK AO2 SLP098 T01500122 56012 $
KLSE 190753Z AUTO 00000KT 10SM CLR 16/13 A2985 RMK AO2 SLP102 T01560133 $
KLSE 190653Z AUTO 00000KT 10SM CLR 16/13 A2986 RMK AO2 SLP104 T01560133 $
KLSE 190553Z AUTO 00000KT 10SM CLR 17/14 A2988 RMK AO2 SLP111 T01670139 10228 20150 402610150 51004 $
KLSE 190453Z AUTO 00000KT 10SM CLR 16/13 A2988 RMK AO2 SLP112 T01610133 $
KLSE 190353Z AUTO 00000KT 10SM CLR 18/14 A2987 RMK AO2 SLP109 T01780139 $
KLSE 190253Z AUTO 00000KT 10SM CLR 19/14 A2987 RMK AO2 SLP107 T01890144 50001 $
KLSE 190153Z 31004KT 10SM CLR 20/14 A2987 RMK AO2 SLP107 T02000144 $
KLSE 190053Z 29005KT 10SM CLR 22/14 A2987 RMK AO2 SLP105 T02220139 $
KLSE 182353Z 31005KT 10SM FEW070 23/13 A2986 RMK AO2 SLP105 T02280128 10261 20228 56010 $
KLSE 182253Z 31009KT 10SM BKN065 24/12 A2987 RMK AO2 SLP105 T02440122 $
KLSE 182153Z 31008KT 10SM BKN060 26/13 A2988 RMK AO2 SLP110 T02560133 $
KLSE 182053Z 28005KT 10SM SCT060 25/13 A2989 RMK AO2 SLP114 T02500133 56013 $
KLSE 181953Z VRB04KT 10SM CLR 25/13 A2990 RMK AO2 SLP117 T02500133 $
KLSE 181853Z 00000KT 10SM SCT046 BKN055 24/13 A2992 RMK AO2 SLP123 T02390128 $
KLSE 181753Z 24006KT 10SM BKN080 24/12 A2993 RMK AO2 SLP128 60001 T02390122 10250 20189 57009 $
KLSE 181653Z 28004KT 10SM BKN075 OVC090 23/14 A2994 RMK AO2 SLP132 T02280139 $
KLSE 181553Z 00000KT 10SM BKN085 BKN120 22/15 A2995 RMK AO2 SLP133 T02170150 $
KLSE 181540Z 00000KT 3/4SM HZ SCT075 SCT095 BKN120 21/16 A2995 RMK AO2 T02110161 $
KLSE 181453Z 34003KT 10SM SCT037 OVC070 20/17 A2996 RMK AO2 RAB10E30 SLP138 P0001 60001 T02000167 50002 $